Time;durP1;ratioP1;P1;durP2;ratioP2;P2;SDS_P1;SDS_P2;PMS_P1;PMS_P2;Temp;Humidity;BMP_temperature;BMP_pressure;BME280_temperature;BME280_humidity;BME280_pressure;Samples;Min_cycle;Max_cycle;Signal;HPM_P1;HPM_P2
2022/12/11 00:00:50;;;;;;;35.33;15.32;;;1.80;99.90;;;;;;4995739;28;93041;-74
2022/12/11 00:03:17;;;;;;;34.88;14.40;;;1.80;99.90;;;;;;4994243;28;92673;-74
2022/12/11 00:05:45;;;;;;;36.88;15.57;;;1.70;99.90;;;;;;4995182;28;92467;-74
2022/12/11 00:08:12;;;;;;;39.63;14.73;;;1.80;99.90;;;;;;4992925;28;95465;-74
2022/12/11 00:10:47;;;;;;;34.58;14.88;;;1.80;99.90;;;;;;4994282;28;95654;-74
2022/12/11 00:13:14;;;;;;;41.08;16.23;;;1.80;99.90;;;;;;4994535;28;92365;-74
2022/12/11 00:15:41;;;;;;;38.70;15.48;;;1.80;99.90;;;;;;5010685;28;92669;-74
2022/12/11 00:18:13;;;;;;;40.00;16.65;;;1.70;99.90;;;;;;4993789;28;93417;-74
2022/12/11 00:20:41;;;;;;;37.17;15.27;;;1.80;99.90;;;;;;4994129;28;93055;-75
2022/12/11 00:23:09;;;;;;;30.65;14.70;;;1.70;99.90;;;;;;4995191;28;92500;-75
2022/12/11 00:25:45;;;;;;;32.83;12.98;;;1.80;99.90;;;;;;4995692;28;91711;-74
2022/12/11 00:28:13;;;;;;;26.48;11.43;;;1.80;99.90;;;;;;4993976;28;93126;-74
2022/12/11 00:30:41;;;;;;;28.15;13.25;;;1.80;99.90;;;;;;4995224;28;93158;-75
2022/12/11 00:33:10;;;;;;;26.95;12.10;;;1.80;99.90;;;;;;4993879;28;94841;-74
2022/12/11 00:35:42;;;;;;;33.80;13.85;;;1.80;99.90;;;;;;4994181;28;92687;-74
2022/12/11 00:38:18;;;;;;;33.92;14.13;;;1.80;99.90;;;;;;4995119;28;93392;-75
2022/12/11 00:40:45;;;;;;;37.00;16.60;;;1.80;99.90;;;;;;4993992;28;93098;-74
2022/12/11 00:43:13;;;;;;;36.15;14.68;;;1.80;99.90;;;;;;4994809;28;95539;-74
2022/12/11 00:45:45;;;;;;;36.03;15.10;;;1.80;99.90;;;;;;4993850;28;93011;-74
2022/12/11 00:48:13;;;;;;;38.10;16.63;;;1.90;99.90;;;;;;4993438;28;94634;-74
2022/12/11 00:50:41;;;;;;;37.58;15.02;;;1.90;99.90;;;;;;4995305;28;92989;-75
2022/12/11 00:53:08;;;;;;;36.05;15.77;;;1.90;99.90;;;;;;4993686;28;93055;-74
2022/12/11 00:55:40;;;;;;;35.53;14.07;;;1.90;99.90;;;;;;4993584;28;92428;-74
2022/12/11 00:58:08;;;;;;;33.10;13.00;;;2.00;99.90;;;;;;4993216;28;95635;-75
2022/12/11 01:00:35;;;;;;;34.92;13.70;;;1.90;99.90;;;;;;4994779;28;95765;-74
2022/12/11 01:03:02;;;;;;;38.47;15.27;;;1.90;99.90;;;;;;4993425;28;92729;-75
2022/12/11 01:05:29;;;;;;;35.67;14.85;;;1.90;99.90;;;;;;4993776;28;92668;-74
2022/12/11 01:07:56;;;;;;;32.05;14.13;;;1.90;99.90;;;;;;4992982;28;95884;-75
2022/12/11 01:10:23;;;;;;;34.13;13.85;;;1.90;99.90;;;;;;4993361;28;93028;-74
2022/12/11 01:12:53;;;;;;;32.28;14.45;;;2.00;99.90;;;;;;4993576;28;92611;-75
2022/12/11 01:15:22;;;;;;;35.20;14.20;;;2.00;99.90;;;;;;4995164;28;92200;-75
2022/12/11 01:17:50;;;;;;;37.33;14.85;;;2.00;99.90;;;;;;4993258;28;97533;-75
2022/12/11 01:20:19;;;;;;;34.65;13.65;;;2.00;99.90;;;;;;4993058;28;93043;-75
2022/12/11 01:22:46;;;;;;;30.42;14.25;;;2.10;99.90;;;;;;4993413;28;94835;-74
2022/12/11 01:25:13;;;;;;;30.50;12.90;;;2.10;99.90;;;;;;4994672;28;92992;-74
2022/12/11 01:27:40;;;;;;;33.67;13.55;;;2.10;99.90;;;;;;4993409;28;93117;-75
2022/12/11 01:30:08;;;;;;;36.35;12.75;;;2.10;99.90;;;;;;4996329;28;95899;-74
2022/12/11 01:32:36;;;;;;;34.45;14.00;;;2.10;99.90;;;;;;4997997;28;92483;-74
2022/12/11 01:35:06;;;;;;;38.35;13.68;;;2.10;99.90;;;;;;4997863;28;92501;-74
2022/12/11 01:37:34;;;;;;;33.38;14.00;;;2.10;99.90;;;;;;4997979;28;93358;-75
2022/12/11 01:40:02;;;;;;;32.10;12.48;;;2.00;99.90;;;;;;5013215;28;93028;-74
2022/12/11 01:42:29;;;;;;;30.10;11.48;;;2.00;99.90;;;;;;4996807;28;92436;-74
2022/12/11 01:45:21;;;;;;;31.85;12.70;;;2.10;99.90;;;;;;4996469;28;92598;-74
2022/12/11 01:48:04;;;;;;;30.38;12.55;;;2.10;99.90;;;;;;5011546;28;97173;-74
2022/12/11 01:50:37;;;;;;;28.95;11.95;;;2.10;99.90;;;;;;4998012;28;95413;-75
2022/12/11 01:53:09;;;;;;;34.90;12.48;;;2.10;99.90;;;;;;4996270;28;92513;-74
2022/12/11 01:55:37;;;;;;;28.35;11.63;;;2.10;99.90;;;;;;4979897;28;92502;-74
2022/12/11 01:58:05;;;;;;;30.40;13.63;;;2.10;99.90;;;;;;4995930;28;103660;-74
2022/12/11 02:00:32;;;;;;;30.50;11.63;;;2.10;99.90;;;;;;4997427;28;93080;-75
2022/12/11 02:02:59;;;;;;;34.13;13.95;;;2.20;99.90;;;;;;4997582;28;92924;-74
2022/12/11 02:05:26;;;;;;;33.85;13.48;;;2.20;99.90;;;;;;4997803;28;91814;-74
2022/12/11 02:07:56;;;;;;;31.67;12.38;;;2.20;99.90;;;;;;5012941;28;93219;-74
2022/12/11 02:10:34;;;;;;;28.80;12.80;;;2.20;99.90;;;;;;4996809;28;93166;-74
2022/12/11 02:13:11;;;;;;;31.40;11.98;;;2.20;99.90;;;;;;4996246;28;94955;-74
2022/12/11 02:15:51;;;;;;;32.20;12.38;;;2.30;99.90;;;;;;4997787;28;92379;-74
2022/12/11 02:18:40;;;;;;;31.00;13.30;;;2.30;99.90;;;;;;4997264;28;93080;-75
2022/12/11 02:21:35;;;;;;;29.77;12.15;;;2.30;99.90;;;;;;5012295;28;94994;-74
2022/12/11 02:24:20;;;;;;;;;;;2.30;99.90;;;;;;5013256;28;92401;-74
2022/12/11 02:27:12;;;;;;;25.75;11.63;;;2.30;99.90;;;;;;4998967;28;92572;-74
2022/12/11 02:29:52;;;;;;;29.35;12.30;;;2.20;99.90;;;;;;4996937;28;92467;-75
2022/12/11 02:32:47;;;;;;;29.95;11.27;;;2.30;99.90;;;;;;4997311;28;93398;-74
2022/12/11 02:35:22;;;;;;;27.40;12.40;;;2.40;99.90;;;;;;4997351;28;92712;-74
2022/12/11 02:37:59;;;;;;;28.98;12.15;;;2.40;99.90;;;;;;4997150;28;92430;-74
2022/12/11 02:40:30;;;;;;;31.17;12.50;;;2.40;99.90;;;;;;4995287;28;95660;-74
2022/12/11 02:43:01;;;;;;;31.55;12.20;;;2.40;99.90;;;;;;4996952;28;95502;-74
2022/12/11 02:45:29;;;;;;;25.73;10.80;;;2.40;99.90;;;;;;4995535;28;92506;-75
2022/12/11 02:47:59;;;;;;;32.63;12.32;;;2.40;99.90;;;;;;4995105;28;104170;-75
2022/12/11 02:50:27;;;;;;;28.23;11.93;;;2.40;99.90;;;;;;5011462;28;95919;-74
2022/12/11 02:52:56;;;;;;;29.77;11.77;;;2.40;99.90;;;;;;4996872;28;93347;-75
2022/12/11 02:55:25;;;;;;;29.15;12.48;;;2.40;99.90;;;;;;4995208;28;92461;-75
2022/12/11 02:58:05;;;;;;;29.27;12.25;;;2.40;99.90;;;;;;4995691;28;91813;-75
2022/12/11 03:00:32;;;;;;;31.10;12.40;;;2.40;99.90;;;;;;4996667;28;92999;-75
2022/12/11 03:03:01;;;;;;;29.15;12.85;;;2.40;99.90;;;;;;4996032;28;93085;-74
2022/12/11 03:05:29;;;;;;;35.20;13.05;;;2.40;99.90;;;;;;4993977;28;94945;-74
2022/12/11 03:07:56;;;;;;;26.60;11.93;;;2.50;99.90;;;;;;4996643;28;92431;-74
2022/12/11 03:10:24;;;;;;;41.05;14.45;;;2.50;99.90;;;;;;4994687;28;98499;-75
2022/12/11 03:12:54;;;;;;;44.72;14.05;;;2.40;99.90;;;;;;4994979;28;94098;-75
2022/12/11 03:15:29;;;;;;;30.55;13.35;;;2.50;99.90;;;;;;4994695;28;92448;-74
2022/12/11 03:18:14;;;;;;;28.05;12.60;;;2.50;99.90;;;;;;4995022;28;92539;-75
2022/12/11 03:20:46;;;;;;;29.55;12.30;;;2.50;99.90;;;;;;5011718;28;93276;-74
2022/12/11 03:23:47;;;;;;;31.38;13.35;;;2.50;99.90;;;;;;4994985;28;94084;-74
2022/12/11 03:26:17;;;;;;;29.80;13.23;;;2.50;99.90;;;;;;4996085;28;92362;-74
2022/12/11 03:29:20;;;;;;;36.58;12.50;;;2.50;99.90;;;;;;4995294;28;92468;-75
2022/12/11 03:31:57;;;;;;;36.28;13.80;;;2.50;99.90;;;;;;4982073;28;95703;-74
2022/12/11 03:34:31;;;;;;;37.03;12.95;;;2.50;99.90;;;;;;4995755;28;95162;-74
2022/12/11 03:36:59;;;;;;;33.40;12.70;;;2.60;99.90;;;;;;4996355;28;93007;-75
2022/12/11 03:39:32;;;;;;;29.10;12.75;;;2.60;99.90;;;;;;4994445;28;92487;-75
2022/12/11 03:42:01;;;;;;;32.53;12.00;;;2.60;99.90;;;;;;4995925;28;93311;-74
2022/12/11 03:44:30;;;;;;;29.58;11.90;;;2.60;99.90;;;;;;4995508;28;93129;-74
2022/12/11 03:47:00;;;;;;;32.60;13.77;;;2.60;99.90;;;;;;4996088;28;92468;-74
2022/12/11 03:49:33;;;;;;;38.40;12.57;;;2.60;99.90;;;;;;4996357;28;92198;-74
2022/12/11 03:52:03;;;;;;;32.95;11.30;;;2.60;99.90;;;;;;4995315;28;93168;-75
2022/12/11 03:54:30;;;;;;;29.25;12.30;;;2.60;99.90;;;;;;4994168;28;95464;-75
2022/12/11 03:57:00;;;;;;;31.90;12.25;;;2.60;99.90;;;;;;4993341;28;94901;-75
2022/12/11 03:59:27;;;;;;;37.10;13.60;;;2.60;99.90;;;;;;5010865;28;92484;-74
2022/12/11 04:01:54;;;;;;;33.78;12.98;;;2.60;99.90;;;;;;4994214;28;98416;-74
2022/12/11 04:04:21;;;;;;;31.02;12.02;;;2.50;99.90;;;;;;4993573;28;95769;-75
2022/12/11 04:06:48;;;;;;;32.80;13.70;;;2.50;99.90;;;;;;4994250;28;99602;-74
2022/12/11 04:09:15;;;;;;;29.65;12.10;;;2.40;99.90;;;;;;5010928;28;92526;-74
2022/12/11 04:11:42;;;;;;;29.42;11.43;;;2.50;99.90;;;;;;4995371;28;93230;-74
2022/12/11 04:16:59;;;;;;;29.13;12.48;;;2.50;99.90;;;;;;4995851;28;92633;-74
2022/12/11 04:24:14;;;;;;;33.90;13.05;;;2.50;99.90;;;;;;5009248;28;98603;-75
2022/12/11 04:25:03;;;;;;;31.15;12.77;;;2.50;99.90;;;;;;4994357;28;94268;-74
2022/12/11 04:27:48;;;;;;;32.50;13.52;;;2.50;99.90;;;;;;4995155;28;92458;-74
2022/12/11 04:30:18;;;;;;;33.15;13.55;;;2.50;99.90;;;;;;4995617;28;92867;-74
2022/12/11 04:32:46;;;;;;;35.83;12.50;;;2.50;99.90;;;;;;4994997;28;93232;-74
2022/12/11 04:35:13;;;;;;;31.70;13.60;;;2.50;99.90;;;;;;4995180;28;92866;-74
2022/12/11 04:37:40;;;;;;;36.00;13.50;;;2.60;99.90;;;;;;4994809;28;98902;-75
2022/12/11 04:40:10;;;;;;;31.05;12.07;;;2.60;99.90;;;;;;4994311;28;92303;-75
2022/12/11 04:42:37;;;;;;;40.55;14.15;;;2.60;99.90;;;;;;4994724;28;94475;-74
2022/12/11 04:45:05;;;;;;;34.88;12.88;;;2.60;99.90;;;;;;5010445;28;92974;-75
2022/12/11 04:47:34;;;;;;;35.60;13.23;;;2.60;99.90;;;;;;4993752;28;95170;-75
2022/12/11 04:50:01;;;;;;;33.28;12.73;;;2.60;99.90;;;;;;4993830;28;92709;-74
2022/12/11 04:52:28;;;;;;;31.48;12.75;;;2.50;99.90;;;;;;4994557;28;93517;-75
2022/12/11 04:54:55;;;;;;;37.13;13.60;;;2.50;99.90;;;;;;4993752;28;93133;-75
2022/12/11 04:57:22;;;;;;;30.27;12.90;;;2.50;99.90;;;;;;4995088;28;92458;-74
2022/12/11 04:59:49;;;;;;;37.88;14.00;;;2.50;99.90;;;;;;5010146;28;92500;-74
2022/12/11 05:02:16;;;;;;;39.35;14.27;;;2.50;99.90;;;;;;4994094;28;93193;-75
2022/12/11 05:04:43;;;;;;;43.58;15.02;;;2.60;99.90;;;;;;4998251;28;93001;-74
2022/12/11 05:07:10;;;;;;;36.60;14.38;;;2.60;99.90;;;;;;4996974;28;92578;-74
2022/12/11 05:09:37;;;;;;;34.83;13.93;;;2.60;99.90;;;;;;4998281;28;92688;-74
2022/12/11 05:12:04;;;;;;;37.42;14.75;;;2.60;99.90;;;;;;4995512;28;98310;-74
2022/12/11 05:14:31;;;;;;;37.45;13.82;;;2.50;99.90;;;;;;4997897;28;95545;-74
2022/12/11 05:16:59;;;;;;;34.90;13.45;;;2.60;99.90;;;;;;4964285;28;92503;-75
2022/12/11 05:19:26;;;;;;;39.53;15.15;;;2.60;99.90;;;;;;4980436;28;92590;-74
2022/12/11 05:21:53;;;;;;;33.42;14.50;;;2.60;99.90;;;;;;4996422;28;106610;-74
2022/12/11 05:24:20;;;;;;;36.33;14.10;;;2.60;99.90;;;;;;4998077;28;93136;-74
2022/12/11 05:26:47;;;;;;;41.03;14.68;;;2.50;99.90;;;;;;4980432;28;92958;-74
2022/12/11 05:29:14;;;;;;;40.35;14.07;;;2.60;99.90;;;;;;4998573;28;91712;-74
2022/12/11 05:31:40;;;;;;;34.30;14.25;;;2.50;99.90;;;;;;4996376;28;93315;-74
2022/12/11 05:34:07;;;;;;;35.72;13.38;;;2.60;99.90;;;;;;4997825;28;93012;-74
2022/12/11 05:36:34;;;;;;;36.70;14.73;;;2.60;99.90;;;;;;4996497;28;94761;-74
2022/12/11 05:39:03;;;;;;;37.60;14.30;;;2.50;99.90;;;;;;4997880;28;92478;-74
2022/12/11 05:41:31;;;;;;;38.25;15.32;;;2.60;99.90;;;;;;4995908;28;95665;-74
2022/12/11 05:43:58;;;;;;;35.95;13.10;;;2.60;99.90;;;;;;4997729;28;93160;-74
2022/12/11 05:46:28;;;;;;;35.85;13.27;;;2.60;99.90;;;;;;4997769;28;92380;-74
2022/12/11 05:48:57;;;;;;;32.88;13.57;;;2.60;99.90;;;;;;4996171;28;93022;-74
2022/12/11 05:51:25;;;;;;;33.45;13.50;;;2.60;99.90;;;;;;4995735;28;112263;-74
2022/12/11 05:53:53;;;;;;;32.33;13.18;;;2.60;99.90;;;;;;4997548;28;93795;-74
2022/12/11 05:56:29;;;;;;;33.15;12.88;;;2.60;99.90;;;;;;4996441;28;92489;-74
2022/12/11 05:58:57;;;;;;;28.30;13.20;;;2.60;99.90;;;;;;4996512;28;92893;-74
2022/12/11 06:01:28;;;;;;;37.78;14.35;;;2.60;99.90;;;;;;4994677;28;98553;-74
2022/12/11 06:03:55;;;;;;;27.17;11.07;;;2.60;99.90;;;;;;4995237;28;98248;-74
2022/12/11 06:06:24;;;;;;;31.58;13.00;;;2.50;99.90;;;;;;4996302;28;92565;-74
2022/12/11 06:08:52;;;;;;;31.75;13.07;;;2.50;99.90;;;;;;4995791;28;93068;-74
2022/12/11 06:11:20;;;;;;;32.15;12.60;;;2.60;99.90;;;;;;4997360;28;93076;-74
2022/12/11 06:13:50;;;;;;;31.80;13.23;;;2.60;99.90;;;;;;4996487;28;93076;-74
2022/12/11 06:16:18;;;;;;;33.88;14.18;;;2.60;99.90;;;;;;4997390;28;92405;-74
2022/12/11 06:18:46;;;;;;;36.92;14.73;;;2.50;99.90;;;;;;4997329;28;94156;-74
2022/12/11 06:21:14;;;;;;;31.02;12.65;;;2.60;99.90;;;;;;5012273;28;94976;-74
2022/12/11 06:23:41;;;;;;;35.58;14.13;;;2.60;99.90;;;;;;4997116;28;92976;-75
2022/12/11 06:26:09;;;;;;;31.95;13.90;;;2.60;99.90;;;;;;4996075;28;94845;-74
2022/12/11 06:28:37;;;;;;;32.17;13.57;;;2.50;99.90;;;;;;4997073;28;92476;-74
2022/12/11 06:31:04;;;;;;;35.53;13.63;;;2.50;99.90;;;;;;4995695;28;93149;-75
2022/12/11 06:33:31;;;;;;;33.90;13.10;;;2.50;99.90;;;;;;4996813;28;92391;-74
2022/12/11 06:36:04;;;;;;;30.20;12.13;;;2.50;99.90;;;;;;4996837;28;92539;-75
2022/12/11 06:38:31;;;;;;;32.17;12.93;;;2.60;99.90;;;;;;4997000;28;92464;-74
2022/12/11 06:41:01;;;;;;;36.20;13.55;;;2.60;99.90;;;;;;4995286;28;95736;-74
2022/12/11 06:43:28;;;;;;;30.42;12.10;;;2.60;99.90;;;;;;4997402;28;92916;-74
2022/12/11 06:45:55;;;;;;;33.20;13.13;;;2.60;99.90;;;;;;4995563;28;92439;-74
2022/12/11 06:48:27;;;;;;;31.73;12.23;;;2.60;99.90;;;;;;4995842;28;92527;-74
2022/12/11 06:50:54;;;;;;;31.95;12.27;;;2.60;99.90;;;;;;4977357;28;98529;-74
2022/12/11 06:53:21;;;;;;;32.22;13.00;;;2.60;99.90;;;;;;4995418;28;95561;-74
2022/12/11 06:55:48;;;;;;;32.58;12.32;;;2.70;99.90;;;;;;4994891;28;99951;-74
2022/12/11 06:58:15;;;;;;;35.25;12.73;;;2.70;99.90;;;;;;4995843;28;93034;-74
2022/12/11 07:00:42;;;;;;;29.15;11.85;;;2.70;99.90;;;;;;4996580;28;93191;-74
2022/12/11 07:03:10;;;;;;;31.50;12.38;;;2.70;99.90;;;;;;5011417;28;95582;-74
2022/12/11 07:05:37;;;;;;;35.40;12.95;;;2.70;99.90;;;;;;4995283;28;92892;-74
2022/12/11 07:08:06;;;;;;;32.67;12.77;;;2.70;99.90;;;;;;5011945;28;91872;-74
2022/12/11 07:10:33;;;;;;;29.63;12.60;;;2.70;99.90;;;;;;4996433;28;93288;-74
2022/12/11 07:12:59;;;;;;;31.58;12.68;;;2.70;99.90;;;;;;4994686;28;94606;-74
2022/12/11 07:15:27;;;;;;;28.83;12.55;;;2.70;99.90;;;;;;4993515;28;94792;-74
2022/12/11 07:17:54;;;;;;;33.88;12.02;;;2.70;99.90;;;;;;4994883;28;92594;-74
2022/12/11 07:20:21;;;;;;;31.50;13.35;;;2.70;99.90;;;;;;4995839;28;104033;-75
2022/12/11 07:22:48;;;;;;;27.88;12.07;;;2.70;99.90;;;;;;4994845;28;93190;-75
2022/12/11 07:25:15;;;;;;;28.30;11.40;;;2.70;99.90;;;;;;4995469;28;92459;-74
2022/12/11 07:27:42;;;;;;;31.33;13.15;;;2.70;99.90;;;;;;4996010;28;92432;-75
2022/12/11 07:30:10;;;;;;;37.03;14.40;;;2.70;99.90;;;;;;5011341;28;93400;-74
2022/12/11 07:32:37;;;;;;;33.97;12.95;;;2.80;99.90;;;;;;4996277;28;93934;-74
2022/12/11 07:35:04;;;;;;;29.58;13.05;;;2.80;99.90;;;;;;4995897;28;92359;-74
2022/12/11 07:37:31;;;;;;;32.20;13.68;;;2.80;99.90;;;;;;5011352;28;92484;-74
2022/12/11 07:39:58;;;;;;;34.60;12.65;;;2.80;99.90;;;;;;5009811;28;98528;-74
2022/12/11 07:42:25;;;;;;;27.80;11.43;;;2.80;99.90;;;;;;4995552;28;95514;-75
2022/12/11 07:44:52;;;;;;;35.03;13.93;;;2.80;99.90;;;;;;4994615;28;92503;-75
2022/12/11 07:47:19;;;;;;;29.67;13.00;;;2.80;99.90;;;;;;4994883;28;92491;-74
2022/12/11 07:49:47;;;;;;;31.95;13.32;;;2.70;99.90;;;;;;4994813;28;93161;-74
2022/12/11 07:52:14;;;;;;;41.08;16.45;;;2.80;99.90;;;;;;5010774;28;106703;-75
2022/12/11 07:54:41;;;;;;;36.97;16.40;;;2.80;99.90;;;;;;4995779;28;92450;-74
2022/12/11 07:57:08;;;;;;;33.22;18.55;;;2.80;99.90;;;;;;4995810;28;91740;-74
2022/12/11 07:59:40;;;;;;;35.33;14.05;;;2.80;99.90;;;;;;5010632;28;93328;-74
2022/12/11 08:02:10;;;;;;;33.83;14.63;;;2.80;99.90;;;;;;4995166;28;93104;-74
2022/12/11 08:04:37;;;;;;;32.20;15.30;;;2.80;99.90;;;;;;4994752;28;94819;-74
2022/12/11 08:07:04;;;;;;;32.90;14.77;;;2.80;99.90;;;;;;5010881;28;92613;-74
2022/12/11 08:09:31;;;;;;;45.15;24.33;;;2.80;99.90;;;;;;4995610;28;93743;-74
2022/12/11 08:11:58;;;;;;;36.60;16.50;;;2.80;99.90;;;;;;4994067;28;95605;-74
2022/12/11 08:14:25;;;;;;;49.92;30.42;;;2.80;99.90;;;;;;4994290;28;92443;-74
2022/12/11 08:16:52;;;;;;;69.85;62.03;;;2.80;99.90;;;;;;4994143;28;92417;-74
2022/12/11 08:19:19;;;;;;;45.03;14.85;;;2.70;99.90;;;;;;4995389;28;93405;-74
2022/12/11 08:21:46;;;;;;;42.15;19.67;;;2.70;99.90;;;;;;4995780;28;92005;-74
2022/12/11 08:24:18;;;;;;;35.13;17.33;;;2.70;99.90;;;;;;4993509;28;92591;-74
2022/12/11 08:26:47;;;;;;;46.03;16.42;;;2.70;99.90;;;;;;4994081;28;92465;-74
2022/12/11 08:29:14;;;;;;;42.30;20.90;;;2.70;99.90;;;;;;4993950;28;95663;-74
2022/12/11 08:31:41;;;;;;;36.50;16.95;;;2.70;99.90;;;;;;4995168;28;95480;-74
2022/12/11 08:34:08;;;;;;;39.05;15.10;;;2.60;99.90;;;;;;4993556;28;93520;-74
2022/12/11 08:36:35;;;;;;;37.40;14.80;;;2.60;99.90;;;;;;4993762;28;93204;-74
2022/12/11 08:39:02;;;;;;;57.35;28.30;;;2.60;99.90;;;;;;4994893;28;93326;-74
2022/12/11 08:41:29;;;;;;;76.95;43.50;;;2.60;99.90;;;;;;4977683;28;93028;-74
2022/12/11 08:43:59;;;;;;;54.53;26.30;;;2.60;99.90;;;;;;4994808;28;93232;-74
2022/12/11 08:46:28;;;;;;;42.28;17.05;;;2.60;99.90;;;;;;4995272;28;91726;-74
2022/12/11 08:48:55;;;;;;;77.13;63.22;;;2.60;99.90;;;;;;4977146;28;95816;-74
2022/12/11 08:51:25;;;;;;;52.00;25.13;;;2.60;99.90;;;;;;4994832;28;93055;-74
2022/12/11 08:54:00;;;;;;;42.90;18.05;;;2.70;99.90;;;;;;4992382;28;94947;-74
2022/12/11 08:56:27;;;;;;;45.45;17.60;;;2.70;99.90;;;;;;4994969;28;92838;-75
2022/12/11 08:58:55;;;;;;;38.95;17.58;;;2.70;99.90;;;;;;4993437;28;95781;-75
2022/12/11 09:01:24;;;;;;;38.78;20.30;;;2.60;99.90;;;;;;4994818;28;93122;-74
2022/12/11 09:03:53;;;;;;;45.38;17.25;;;2.70;99.90;;;;;;4994024;28;92442;-74
2022/12/11 09:06:22;;;;;;;55.38;34.55;;;2.70;99.90;;;;;;4993369;28;92502;-74
2022/12/11 09:08:51;;;;;;;69.05;45.28;;;2.70;99.90;;;;;;4994567;28;93320;-74
2022/12/11 09:11:22;;;;;;;49.28;19.15;;;2.70;99.90;;;;;;4994683;28;93109;-75
2022/12/11 09:13:49;;;;;;;56.42;28.90;;;2.70;99.90;;;;;;4993360;28;92598;-74
2022/12/11 09:16:18;;;;;;;42.58;21.67;;;2.70;99.90;;;;;;4993467;28;92592;-75
2022/12/11 09:18:47;;;;;;;49.65;25.20;;;2.70;99.90;;;;;;5000845;28;95498;-74
2022/12/11 09:21:18;;;;;;;36.80;14.40;;;2.70;99.90;;;;;;5012970;28;95658;-74
2022/12/11 09:23:47;;;;;;;40.40;14.80;;;2.70;99.90;;;;;;5013427;28;93091;-74
2022/12/11 09:26:16;;;;;;;47.97;18.65;;;2.70;99.90;;;;;;4996674;28;92551;-74
2022/12/11 09:28:44;;;;;;;44.45;17.73;;;2.70;99.90;;;;;;5013218;28;92520;-74
2022/12/11 09:31:18;;;;;;;43.78;17.92;;;2.80;99.90;;;;;;5014007;28;93093;-74
2022/12/11 09:33:45;;;;;;;41.92;16.50;;;2.80;99.90;;;;;;5013195;28;92464;-74
2022/12/11 09:36:12;;;;;;;51.30;20.90;;;2.80;99.90;;;;;;5013010;28;91908;-74
2022/12/11 09:38:39;;;;;;;36.13;15.90;;;2.80;99.90;;;;;;5014571;28;93195;-74
2022/12/11 09:41:22;;;;;;;59.60;38.35;;;2.80;99.90;;;;;;4996220;28;92974;-74
2022/12/11 09:44:04;;;;;;;41.13;18.23;;;2.90;99.90;;;;;;5013421;28;94748;-74
2022/12/11 09:46:32;;;;;;;37.95;23.20;;;2.90;99.90;;;;;;5014613;28;92440;-74
2022/12/11 09:49:02;;;;;;;37.95;18.45;;;2.90;99.90;;;;;;5014986;28;93195;-74
2022/12/11 09:51:41;;;;;;;49.35;31.10;;;2.90;99.90;;;;;;5017369;28;93206;-74
2022/12/11 09:54:12;;;;;;;37.08;18.85;;;3.00;99.90;;;;;;5017647;28;92344;-74
2022/12/11 09:56:53;;;;;;;40.78;18.05;;;3.00;99.90;;;;;;5018060;28;92452;-74
2022/12/11 09:59:25;;;;;;;31.08;13.77;;;3.10;99.90;;;;;;5016354;28;92570;-74
2022/12/11 10:02:09;;;;;;;36.58;15.95;;;3.10;99.90;;;;;;5016584;28;95541;-74
2022/12/11 10:04:45;;;;;;;36.15;15.02;;;3.20;99.90;;;;;;4999347;28;93034;-74
2022/12/11 10:07:48;;;;;;;33.17;13.73;;;3.10;99.90;;;;;;5017410;28;92423;-74
2022/12/11 10:10:43;;;;;;;32.15;15.00;;;3.20;99.90;;;;;;4997819;28;98237;-74
2022/12/11 10:13:09;;;;;;;;;;;3.20;99.90;;;;;;5017791;28;95416;-74
2022/12/11 10:16:02;;;;;;;32.63;13.88;;;3.10;99.90;;;;;;5017789;28;92492;-74
2022/12/11 10:18:31;;;;;;;32.33;13.77;;;3.20;99.90;;;;;;5013237;28;92447;-74
2022/12/11 10:21:00;;;;;;;34.58;14.68;;;3.20;99.90;;;;;;4999432;28;94358;-74
2022/12/11 10:23:37;;;;;;;30.52;14.25;;;3.20;99.90;;;;;;5015548;28;93108;-75
2022/12/11 10:26:19;;;;;;;33.30;14.63;;;3.30;99.90;;;;;;5016205;28;93137;-74
2022/12/11 10:28:46;;;;;;;59.40;38.97;;;3.30;99.90;;;;;;5016175;28;91680;-75
2022/12/11 10:31:19;;;;;;;65.82;31.55;;;3.30;99.90;;;;;;5015695;28;93330;-74
2022/12/11 10:33:52;;;;;;;60.42;24.45;;;3.40;99.90;;;;;;5017003;28;92485;-74
2022/12/11 10:36:25;;;;;;;90.10;40.20;;;3.40;99.90;;;;;;5015668;28;95053;-74
2022/12/11 10:38:53;;;;;;;41.03;17.92;;;3.40;99.90;;;;;;5017271;28;92950;-74
2022/12/11 10:41:23;;;;;;;38.92;16.65;;;3.40;99.90;;;;;;5015153;28;97378;-74
2022/12/11 10:43:52;;;;;;;36.03;16.10;;;3.50;99.90;;;;;;5017149;28;93223;-74
2022/12/11 10:46:22;;;;;;;37.63;17.60;;;3.50;99.90;;;;;;4998784;28;92345;-74
2022/12/11 10:48:54;;;;;;;66.80;32.40;;;3.50;99.90;;;;;;5015638;28;92480;-74
2022/12/11 10:51:41;;;;;;;51.13;23.98;;;3.40;99.90;;;;;;5016732;28;93136;-74
2022/12/11 10:54:28;;;;;;;289.95;120.75;;;3.50;99.90;;;;;;5016873;28;95227;-74
2022/12/11 10:56:55;;;;;;;39.33;16.33;;;3.40;99.90;;;;;;5015287;28;92482;-74
2022/12/11 10:59:48;;;;;;;52.17;22.42;;;3.40;99.90;;;;;;4998220;28;102899;-74
2022/12/11 11:02:30;;;;;;;72.65;54.72;;;3.40;99.90;;;;;;5013951;28;98053;-74
2022/12/11 11:05:00;;;;;;;77.78;60.15;;;3.30;99.90;;;;;;5016340;28;95526;-74
2022/12/11 11:07:29;;;;;;;39.05;22.60;;;3.30;99.90;;;;;;5016403;28;92719;-74
2022/12/11 11:10:13;;;;;;;179.43;96.65;;;3.30;99.90;;;;;;5016439;28;92538;-74
2022/12/11 11:12:44;;;;;;;107.63;58.38;;;3.20;99.90;;;;;;5016381;28;93237;-74
2022/12/11 11:15:24;;;;;;;76.35;38.92;;;3.20;99.90;;;;;;5016325;28;93132;-74
2022/12/11 11:17:57;;;;;;;56.42;41.15;;;3.30;99.90;;;;;;4998523;28;92517;-74
2022/12/11 11:20:29;;;;;;;57.53;35.50;;;3.20;99.90;;;;;;5015353;28;91834;-74
2022/12/11 11:23:12;;;;;;;34.10;18.60;;;3.20;99.90;;;;;;5016042;28;93372;-74
2022/12/11 11:25:49;;;;;;;45.05;26.05;;;3.20;99.90;;;;;;5015952;28;92959;-74
2022/12/11 11:28:39;;;;;;;44.75;19.83;;;3.30;99.90;;;;;;4996808;28;94822;-74
2022/12/11 11:31:12;;;;;;;47.80;25.23;;;3.40;99.90;;;;;;5014617;28;93280;-74
2022/12/11 11:33:55;;;;;;;37.07;17.47;;;3.30;99.90;;;;;;5031440;28;95770;-74
2022/12/11 11:36:25;;;;;;;42.60;23.88;;;3.40;99.90;;;;;;5015855;28;92931;-74
2022/12/11 11:39:16;;;;;;;34.95;17.85;;;3.30;99.90;;;;;;5016269;28;92482;-74
2022/12/11 11:41:51;;;;;;;36.35;15.60;;;3.30;99.90;;;;;;5015958;28;92372;-74
2022/12/11 11:44:33;;;;;;;31.80;15.32;;;3.40;99.90;;;;;;5015904;28;93249;-74
2022/12/11 11:47:13;;;;;;;35.65;15.82;;;3.40;99.90;;;;;;5016454;28;91876;-74
2022/12/11 11:49:40;;;;;;;34.10;15.77;;;3.30;99.90;;;;;;5014483;28;92527;-74
2022/12/11 11:52:20;;;;;;;36.53;15.20;;;3.40;99.90;;;;;;4997786;28;92664;-74
2022/12/11 11:54:47;;;;;;;40.85;17.58;;;3.40;99.90;;;;;;5013357;28;94987;-74
2022/12/11 11:57:26;;;;;;;39.90;19.83;;;3.40;99.90;;;;;;5015548;28;95473;-75
2022/12/11 12:00:08;;;;;;;35.70;17.02;;;3.40;99.90;;;;;;5015923;28;92465;-75
2022/12/11 12:02:40;;;;;;;35.20;16.00;;;3.40;99.90;;;;;;5014481;28;92463;-74
2022/12/11 12:05:23;;;;;;;47.15;21.77;;;3.40;99.90;;;;;;5015685;28;93589;-74
2022/12/11 12:08:21;;;;;;;66.03;30.38;;;3.40;99.90;;;;;;5016009;28;92978;-74
2022/12/11 12:10:56;;;;;;;54.25;27.13;;;3.40;99.90;;;;;;5014569;28;92446;-74
2022/12/11 12:13:49;;;;;;;53.20;37.22;;;3.30;99.90;;;;;;5015500;27;92513;-74
2022/12/11 12:16:47;;;;;;;40.30;21.58;;;3.30;99.90;;;;;;5011656;28;93205;-74
2022/12/11 12:19:27;;;;;;;39.33;17.60;;;3.50;99.90;;;;;;5015622;28;93049;-74
2022/12/11 12:21:55;;;;;;;41.20;19.60;;;3.40;99.90;;;;;;5013093;28;95052;-74
2022/12/11 12:24:28;;;;;;;52.78;38.10;;;3.50;99.90;;;;;;5014158;28;92578;-74
2022/12/11 12:27:01;;;;;;;37.60;19.65;;;3.50;99.90;;;;;;5015430;28;93194;-74
2022/12/11 12:29:49;;;;;;;37.38;19.60;;;3.50;99.90;;;;;;5013830;28;93082;-74
2022/12/11 12:32:27;;;;;;;33.58;18.35;;;3.50;99.90;;;;;;5015406;28;92366;-74
2022/12/11 12:35:10;;;;;;;31.92;15.00;;;3.50;99.90;;;;;;5015472;28;92929;-74
2022/12/11 12:37:56;;;;;;;34.70;15.65;;;3.50;99.90;;;;;;5015008;28;92876;-74
2022/12/11 12:40:49;;;;;;;33.58;15.80;;;3.50;99.90;;;;;;5015675;28;93105;-74
2022/12/11 12:43:28;;;;;;;37.35;16.20;;;3.60;99.90;;;;;;5015464;28;92605;-74
2022/12/11 12:46:05;;;;;;;33.85;15.63;;;3.60;99.90;;;;;;5013893;28;92506;-74
2022/12/11 12:48:33;;;;;;;37.47;19.48;;;3.50;99.90;;;;;;5013599;28;95764;-74
2022/12/11 12:51:00;;;;;;;43.20;27.20;;;3.60;99.90;;;;;;4996933;28;97969;-74
2022/12/11 12:53:32;;;;;;;42.88;22.15;;;3.50;99.90;;;;;;5015134;28;92493;-74
2022/12/11 12:56:01;;;;;;;45.97;26.13;;;3.50;99.90;;;;;;5015090;28;92436;-74
2022/12/11 12:58:33;;;;;;;47.95;32.75;;;3.60;99.90;;;;;;5013436;28;92577;-74
2022/12/11 13:01:08;;;;;;;52.70;32.55;;;3.50;99.90;;;;;;5013629;28;92736;-74
2022/12/11 13:03:49;;;;;;;40.72;21.23;;;3.50;99.90;;;;;;5014159;28;92366;-74
2022/12/11 13:06:28;;;;;;;40.92;19.88;;;3.50;99.90;;;;;;5013657;28;91758;-74